Pacific Dawn — 2AGH7 — position and weather

sailwx.info

Track history (hours):
 
Tides and Currents Weather Stations Pressure Air Temp Water Temp Dewpoint Dewpoint Depression Visibility Wind Speed Wind Dir Waves Ship Positions

Pacific Dawn

Last reported at 2014-Jul-14 10:33 UTC. Time now 2014-Jul-23 18:11 UTC.
Position S 26°37' E 153°32'.
Warning: this ship's position is 9 days out of date.

Length 245 m; draft 8.4 m.

Type: Passenger vessel. MMSI: 235059368.

Date/timePositionNaut miles runAvg speedWind from/ knotsBaromVisibWave heightAir tempDewpointWater temp
2014-Jul-14 10:33S 26°37' E 153°32'1413.7
2014-Jul-14 09:33S 26°41' E 153°17'1510.3
2014-Jul-14 08:05S 26°56' E 153°12'815.9
2014-Jul-14 07:33S 27°03' E 153°17'1413.6
2014-Jul-14 06:33S 27°16' E 153°16'1111.1
2014-Jul-14 05:34S 27°25' E 153°08'4 0.6
2014-Jul-13 23:17S 27°26' E 153°04'0 0.0
2014-Jul-13 22:17S 27°26' E 153°04'0 0.0
2014-Jul-13 20:29S 27°26' E 153°04'1 0.7
2014-Jul-13 19:33S 27°27' E 153°05'6 5.5
2014-Jul-13 18:33S 27°23' E 153°09'1313.1
2014-Jul-13 17:34S 27°14' E 153°20'1414.1
2014-Jul-13 16:33S 27°01' E 153°15'1313.3
2014-Jul-13 15:33S 26°48' E 153°11'1010.4
2014-Jul-13 14:33S 26°40' E 153°19'1716.9
2014-Jul-13 13:33S 26°35' E 153°37'  
2014-Jul-05 11:06S 26°32' E 153°53'1018.2
2014-Jul-05 10:33S 26°35' E 153°42'1918.6
2014-Jul-05 09:33S 26°40' E 153°22'1211.6
2014-Jul-05 08:34S 26°46' E 153°11'1514.7
2014-Jul-05 07:34S 27°01' E 153°15'1514.6
2014-Jul-05 06:33S 27°15' E 153°19'1212.2
2014-Jul-05 05:33S 27°24' E 153°09'5 5.1
2014-Jul-05 04:33S 27°27' E 153°04'0 0.1
2014-Jul-05 01:29S 27°26' E 153°04'0 0.0
2014-Jul-05 00:05S 27°26' E 153°04'0 0.0
2014-Jul-04 23:32S 27°26' E 153°04'0 0.0
2014-Jul-04 22:29S 27°26' E 153°04'0 0.0
2014-Jul-04 21:23S 27°26' E 153°04'0 0.0
2014-Jul-04 20:17S 27°26' E 153°04'0 0.0
2014-Jul-04 19:32S 27°26' E 153°04'4 4.2
2014-Jul-04 18:33S 27°25' E 153°08'10 9.8
2014-Jul-04 17:33S 27°17' E 153°14'1414.1
2014-Jul-04 16:34S 27°03' E 153°18'1616.1
2014-Jul-04 15:33S 26°49' E 153°09'1313.2
2014-Jul-04 14:33S 26°40' E 153°20'  
Track history (hours):
 
Tides and Currents Weather Stations Pressure Air Temp Water Temp Dewpoint Dewpoint Depression Visibility Wind Speed Wind Dir Waves Ship Positions

Pacific Dawn

Last reported at 2014-Jul-14 10:33 UTC. Time now 2014-Jul-23 18:11 UTC.
Position S 26°37' E 153°32'.
Warning: this ship's position is 9 days out of date.

Length 245 m; draft 8.4 m.

Type: Passenger vessel. MMSI: 235059368.

Date/timePositionNaut miles runAvg speedWind from/ knotsBaromVisibWave heightAir tempDewpointWater temp
2014-Jul-14 10:33S 26°37' E 153°32'1413.7
2014-Jul-14 09:33S 26°41' E 153°17'1510.3
2014-Jul-14 08:05S 26°56' E 153°12'815.9
2014-Jul-14 07:33S 27°03' E 153°17'1413.6
2014-Jul-14 06:33S 27°16' E 153°16'1111.1
2014-Jul-14 05:34S 27°25' E 153°08'4 0.6
2014-Jul-13 23:17S 27°26' E 153°04'0 0.0
2014-Jul-13 22:17S 27°26' E 153°04'0 0.0
2014-Jul-13 20:29S 27°26' E 153°04'1 0.7
2014-Jul-13 19:33S 27°27' E 153°05'6 5.5
2014-Jul-13 18:33S 27°23' E 153°09'1313.1
2014-Jul-13 17:34S 27°14' E 153°20'1414.1
2014-Jul-13 16:33S 27°01' E 153°15'1313.3
2014-Jul-13 15:33S 26°48' E 153°11'1010.4
2014-Jul-13 14:33S 26°40' E 153°19'1716.9
2014-Jul-13 13:33S 26°35' E 153°37'  
2014-Jul-05 11:06S 26°32' E 153°53'1018.2
2014-Jul-05 10:33S 26°35' E 153°42'1918.6
2014-Jul-05 09:33S 26°40' E 153°22'1211.6
2014-Jul-05 08:34S 26°46' E 153°11'1514.7
2014-Jul-05 07:34S 27°01' E 153°15'1514.6
2014-Jul-05 06:33S 27°15' E 153°19'1212.2
2014-Jul-05 05:33S 27°24' E 153°09'5 5.1
2014-Jul-05 04:33S 27°27' E 153°04'0 0.1
2014-Jul-05 01:29S 27°26' E 153°04'0 0.0
2014-Jul-05 00:05S 27°26' E 153°04'0 0.0
2014-Jul-04 23:32S 27°26' E 153°04'0 0.0
2014-Jul-04 22:29S 27°26' E 153°04'0 0.0
2014-Jul-04 21:23S 27°26' E 153°04'0 0.0
2014-Jul-04 20:17S 27°26' E 153°04'0 0.0
2014-Jul-04 19:32S 27°26' E 153°04'4 4.2
2014-Jul-04 18:33S 27°25' E 153°08'10 9.8
2014-Jul-04 17:33S 27°17' E 153°14'1414.1
2014-Jul-04 16:34S 27°03' E 153°18'1616.1
2014-Jul-04 15:33S 26°49' E 153°09'1313.2
2014-Jul-04 14:33S 26°40' E 153°20'  

Dump ship's entire track history